Justin, Texas
Current Conditions -  °F | °C
As of 5:53 AM on Saturday 20 Dec 2014 (Local Time) from KAFW Reporting Station
Overcast Overcast  
Wind Chill: 41°   Ceiling: 1700
Heat Index: 45°   Visibility: 8mi
Dew Point: 41°   Wind: 7mph
Humidity: 86%   Direction: 360°N
Pressure: 30.22"   Gusts: NA
Location:  33.08°N, 97.3°W
Report Text: KAFW 201153Z 36006KT 8SM OVC017 07/05 A3022 RMK AO2 SLP237 T00720050 10078 20067 53002
Loading
Personal Weather Stations






























Interactive Weather Map New forecast layout! Learn more

10-Day Weather Forecast

Advertisements
Track Severe Weather on mobile